createdAt,value
2023-02-16T00:00:19.504Z,3.16
2023-02-16T00:02:48.207Z,3.16
2023-02-16T00:05:26.303Z,3.16
2023-02-16T00:07:55.664Z,3.17
2023-02-16T00:10:24.140Z,3.18
2023-02-16T00:13:11.900Z,3.20
2023-02-16T00:15:40.862Z,3.18
2023-02-16T00:18:18.466Z,3.19
2023-02-16T00:20:47.225Z,3.21
2023-02-16T00:23:15.545Z,3.23
2023-02-16T00:25:43.987Z,3.28
2023-02-16T00:28:19.601Z,3.29
2023-02-16T00:30:50.189Z,3.30
2023-02-16T00:33:21.373Z,3.28
2023-02-16T00:35:50.095Z,3.31
2023-02-16T00:38:18.344Z,3.32
2023-02-16T00:40:46.741Z,3.34
2023-02-16T00:43:26.911Z,3.33
2023-02-16T00:45:56.360Z,3.31
2023-02-16T00:48:25.280Z,3.32
2023-02-16T00:50:53.508Z,3.34
2023-02-16T00:53:21.735Z,3.33
2023-02-16T00:55:50.060Z,3.35
2023-02-16T00:58:26.182Z,3.33
2023-02-16T01:00:59.743Z,3.33
2023-02-16T01:03:30.537Z,3.35
2023-02-16T01:06:12.743Z,3.36
2023-02-16T01:08:58.377Z,3.37
2023-02-16T01:11:27.039Z,3.36
2023-02-16T01:13:58.161Z,3.36
2023-02-16T01:16:28.890Z,3.37
2023-02-16T01:18:57.144Z,3.39
2023-02-16T01:21:25.344Z,3.39
2023-02-16T01:23:53.577Z,3.36
2023-02-16T01:26:22.590Z,3.36
2023-02-16T01:28:50.863Z,3.32
2023-02-16T01:31:20.624Z,3.33
2023-02-16T01:33:50.662Z,3.31
2023-02-16T01:36:25.231Z,3.27
2023-02-16T01:38:53.514Z,3.29
2023-02-16T01:41:36.702Z,3.26
2023-02-16T01:44:07.187Z,3.27
2023-02-16T01:46:49.273Z,3.23
2023-02-16T01:49:20.916Z,3.21
2023-02-16T01:51:57.976Z,3.20
2023-02-16T01:54:42.316Z,3.20
2023-02-16T01:57:24.644Z,3.19
2023-02-16T02:00:17.403Z,3.16
2023-02-16T02:02:49.814Z,3.13
2023-02-16T02:05:37.070Z,3.11
2023-02-16T02:08:16.319Z,3.08
2023-02-16T02:10:58.849Z,3.07
2023-02-16T02:13:34.309Z,3.05
2023-02-16T02:16:03.263Z,3.06
2023-02-16T02:18:33.012Z,3.06
2023-02-16T02:22:03.358Z,3.04
2023-02-16T02:25:02.686Z,3.01
2023-02-16T02:27:34.743Z,2.99
2023-02-16T02:30:30.177Z,2.97
2023-02-16T02:33:25.196Z,2.94
2023-02-16T02:36:07.375Z,2.95
2023-02-16T02:38:49.250Z,2.96
2023-02-16T02:41:45.874Z,2.97
2023-02-16T02:44:19.036Z,2.95
2023-02-16T02:46:48.236Z,2.97
2023-02-16T02:49:17.172Z,2.96
2023-02-16T02:51:45.493Z,2.98
2023-02-16T02:54:35.888Z,2.99
2023-02-16T02:57:27.522Z,3.00
2023-02-16T03:00:20.155Z,2.98
2023-02-16T03:02:52.596Z,2.98
2023-02-16T03:05:23.471Z,3.00
2023-02-16T03:07:57.433Z,3.01
2023-02-16T03:11:00.723Z,3.02
2023-02-16T03:13:34.843Z,2.97
2023-02-16T03:16:09.531Z,2.97
2023-02-16T03:18:58.412Z,2.99
2023-02-16T03:21:45.819Z,2.97
2023-02-16T03:24:38.252Z,2.93
2023-02-16T03:27:24.818Z,2.90
2023-02-16T03:29:54.225Z,2.88
2023-02-16T03:32:24.215Z,2.90
2023-02-16T03:34:52.580Z,2.91
2023-02-16T03:37:21.238Z,2.88
2023-02-16T03:40:08.156Z,2.87
2023-02-16T03:42:36.477Z,2.85
2023-02-16T03:45:05.150Z,2.84
2023-02-16T03:47:34.778Z,2.84
2023-02-16T03:50:03.009Z,2.83
2023-02-16T03:52:31.263Z,2.83
2023-02-16T03:55:00.533Z,2.85
2023-02-16T03:57:28.841Z,2.86
2023-02-16T03:59:59.236Z,2.86
2023-02-16T04:02:28.860Z,2.82
2023-02-16T04:04:58.568Z,2.82
2023-02-16T04:07:26.819Z,2.83
2023-02-16T04:09:55.057Z,2.84
2023-02-16T04:12:37.551Z,2.84
2023-02-16T04:15:08.618Z,2.84
2023-02-16T04:17:37.072Z,2.85
2023-02-16T04:20:11.937Z,2.86
2023-02-16T04:22:40.358Z,2.87
2023-02-16T04:25:09.661Z,2.91
2023-02-16T04:27:39.007Z,2.91
2023-02-16T04:30:10.156Z,2.91
2023-02-16T04:32:38.500Z,2.92
2023-02-16T04:35:08.993Z,2.93
2023-02-16T04:37:37.605Z,2.92
2023-02-16T04:40:08.607Z,2.94
2023-02-16T04:42:36.869Z,2.96
2023-02-16T04:45:05.535Z,2.97
2023-02-16T04:47:33.789Z,2.95
2023-02-16T04:50:02.123Z,2.94
2023-02-16T04:52:32.203Z,2.94
2023-02-16T04:55:00.481Z,2.94
2023-02-16T04:57:28.890Z,2.95
2023-02-16T04:59:57.177Z,2.95
2023-02-16T05:02:25.421Z,2.95
2023-02-16T05:04:53.706Z,2.96
2023-02-16T05:07:21.964Z,2.97
2023-02-16T05:09:51.785Z,2.97
2023-02-16T05:12:37.595Z,2.92
2023-02-16T05:15:07.455Z,2.87
2023-02-16T05:17:35.671Z,2.87
2023-02-16T05:20:04.043Z,2.83
2023-02-16T05:22:33.585Z,2.78
2023-02-16T05:25:03.281Z,2.76
2023-02-16T05:27:32.203Z,2.77
2023-02-16T05:30:00.943Z,2.76
2023-02-16T05:32:29.410Z,2.76
2023-02-16T05:34:57.602Z,2.76
2023-02-16T05:37:25.880Z,2.78
2023-02-16T05:39:54.207Z,2.77
2023-02-16T05:42:23.824Z,2.76
2023-02-16T05:44:52.023Z,2.73
2023-02-16T05:47:20.230Z,2.71
2023-02-16T05:49:48.476Z,2.71
2023-02-16T05:52:16.758Z,2.70
2023-02-16T05:54:45.064Z,2.65
2023-02-16T05:57:13.308Z,2.62
2023-02-16T05:59:42.899Z,2.60
2023-02-16T06:02:11.414Z,2.61
2023-02-16T06:04:39.729Z,2.61
2023-02-16T06:07:08.022Z,2.56
2023-02-16T06:09:36.314Z,2.57
2023-02-16T06:12:05.125Z,2.57
2023-02-16T06:14:33.406Z,2.55
2023-02-16T06:17:03.775Z,2.52
2023-02-16T06:19:32.465Z,2.50
2023-02-16T06:22:00.737Z,2.50
2023-02-16T06:24:29.652Z,2.48
2023-02-16T06:26:58.028Z,2.50
2023-02-16T06:29:26.637Z,2.52
2023-02-16T06:31:54.983Z,2.53
2023-02-16T06:34:24.803Z,2.56
2023-02-16T06:36:53.054Z,2.57
2023-02-16T06:39:21.449Z,2.60
2023-02-16T06:41:49.722Z,2.62
2023-02-16T06:44:18.514Z,2.62
2023-02-16T06:46:48.715Z,2.64
2023-02-16T06:49:19.083Z,2.61
2023-02-16T06:51:49.606Z,2.65
2023-02-16T06:54:19.254Z,2.62
2023-02-16T06:56:47.584Z,2.59
2023-02-16T06:59:16.060Z,2.57
2023-02-16T07:01:45.459Z,2.56
2023-02-16T07:04:14.190Z,2.54
2023-02-16T07:06:42.858Z,2.52
2023-02-16T07:09:13.046Z,2.53
2023-02-16T07:11:41.518Z,2.53
2023-02-16T07:14:09.741Z,2.53
2023-02-16T07:16:38.271Z,2.54
2023-02-16T07:19:06.994Z,2.53
2023-02-16T07:21:35.609Z,2.56
2023-02-16T07:24:04.186Z,2.56
2023-02-16T07:26:33.863Z,2.58
2023-02-16T07:29:02.132Z,2.59
2023-02-16T07:31:30.439Z,2.60
2023-02-16T07:33:58.751Z,2.63
2023-02-16T07:36:27.073Z,2.62
2023-02-16T07:38:55.725Z,2.56
2023-02-16T07:41:23.952Z,2.62
2023-02-16T07:43:53.527Z,2.61
2023-02-16T07:46:21.799Z,2.62
2023-02-16T07:48:50.226Z,2.62
2023-02-16T07:51:23.706Z,2.58
2023-02-16T07:53:52.213Z,2.63
2023-02-16T07:56:21.932Z,2.65
2023-02-16T07:58:54.029Z,2.66
2023-02-16T08:01:23.154Z,2.69
2023-02-16T08:03:52.134Z,2.72
2023-02-16T08:06:21.355Z,2.75
2023-02-16T08:08:50.011Z,2.78
2023-02-16T08:11:20.484Z,2.78
2023-02-16T08:13:49.327Z,2.84
2023-02-16T08:16:21.350Z,2.84
2023-02-16T08:18:51.309Z,2.85
2023-02-16T08:21:23.673Z,2.85
2023-02-16T08:23:57.386Z,2.84
2023-02-16T08:26:28.756Z,2.84
2023-02-16T08:28:59.579Z,2.86
2023-02-16T08:31:32.283Z,2.89
2023-02-16T08:34:03.049Z,2.92
2023-02-16T08:36:34.562Z,2.96
2023-02-16T08:39:05.143Z,3.01
2023-02-16T08:41:36.186Z,3.05
2023-02-16T08:44:05.799Z,3.05
2023-02-16T08:46:37.402Z,3.08
2023-02-16T08:49:06.198Z,3.10
2023-02-16T08:51:38.040Z,3.09
2023-02-16T08:54:08.574Z,3.13
2023-02-16T08:56:37.972Z,3.17
2023-02-16T08:59:06.196Z,3.21
2023-02-16T09:01:35.960Z,3.22
2023-02-16T09:04:04.240Z,3.26
2023-02-16T09:06:33.101Z,3.30
2023-02-16T09:09:01.421Z,3.33
2023-02-16T09:11:29.694Z,3.37
2023-02-16T09:13:58.459Z,3.42
2023-02-16T09:16:29.228Z,3.46
2023-02-16T09:18:58.895Z,3.49
2023-02-16T09:21:27.422Z,3.53
2023-02-16T09:23:58.251Z,3.55
2023-02-16T09:26:29.259Z,3.61
2023-02-16T09:28:59.118Z,3.65
2023-02-16T09:31:31.144Z,3.69
2023-02-16T09:34:04.781Z,3.72
2023-02-16T09:36:33.779Z,3.76
2023-02-16T09:39:02.461Z,3.82
2023-02-16T09:41:44.703Z,3.85
2023-02-16T09:44:39.315Z,3.90
2023-02-16T09:47:22.387Z,3.95
2023-02-16T09:49:54.029Z,3.97
2023-02-16T09:52:31.194Z,4.01
2023-02-16T09:55:01.442Z,4.07
2023-02-16T09:57:43.585Z,4.09
2023-02-16T10:00:28.096Z,4.14
2023-02-16T10:03:03.998Z,4.19
2023-02-16T10:05:46.395Z,4.24
2023-02-16T10:08:18.108Z,4.31
2023-02-16T10:10:52.023Z,4.39
2023-02-16T10:13:32.052Z,4.48
2023-02-16T10:16:02.960Z,4.55
2023-02-16T10:18:35.296Z,4.67
2023-02-16T10:21:15.334Z,4.76
2023-02-16T10:23:50.402Z,4.85
2023-02-16T10:26:24.550Z,4.93
2023-02-16T10:28:58.816Z,5.01
2023-02-16T10:31:35.404Z,5.11
2023-02-16T10:34:21.274Z,5.20
2023-02-16T10:37:22.264Z,5.28
2023-02-16T10:40:04.159Z,5.36
2023-02-16T10:42:41.886Z,5.44
2023-02-16T10:45:27.139Z,5.54
2023-02-16T10:47:55.935Z,5.65
2023-02-16T10:50:29.570Z,5.78
2023-02-16T10:53:03.047Z,5.92
2023-02-16T10:55:31.333Z,6.14
2023-02-16T10:58:02.639Z,6.34
2023-02-16T11:00:48.349Z,6.52
2023-02-16T11:03:17.484Z,6.70
2023-02-16T11:05:45.768Z,6.89
2023-02-16T11:08:15.427Z,7.09
2023-02-16T11:10:50.500Z,7.33
2023-02-16T11:13:29.291Z,7.55
2023-02-16T11:16:01.828Z,7.70
2023-02-16T11:18:37.878Z,7.92
2023-02-16T11:21:08.044Z,8.13
2023-02-16T11:23:40.501Z,8.23
2023-02-16T11:26:24.131Z,8.43
2023-02-16T11:28:53.746Z,8.57
2023-02-16T11:31:30.264Z,8.73
2023-02-16T11:34:05.482Z,8.88
2023-02-16T11:36:37.648Z,9.03
2023-02-16T11:39:16.655Z,9.19
2023-02-16T11:41:47.152Z,9.32
2023-02-16T11:44:29.063Z,9.45
2023-02-16T11:46:58.800Z,9.54
2023-02-16T11:49:34.469Z,9.58
2023-02-16T11:52:22.279Z,9.61
2023-02-16T11:54:53.944Z,9.66
2023-02-16T11:57:28.546Z,9.65
2023-02-16T11:59:58.734Z,9.66
2023-02-16T12:03:10.858Z,9.69
2023-02-16T12:05:58.290Z,9.71
2023-02-16T12:08:42.995Z,9.75
2023-02-16T12:11:29.274Z,9.82
2023-02-16T12:14:14.345Z,9.87
2023-02-16T12:16:51.967Z,9.92
2023-02-16T12:19:34.949Z,9.95
2023-02-16T12:22:17.157Z,9.99
2023-02-16T12:24:57.918Z,10.04
2023-02-16T12:27:35.342Z,10.06
2023-02-16T12:30:19.948Z,10.10
2023-02-16T12:33:06.355Z,10.15
2023-02-16T12:36:05.477Z,10.21
2023-02-16T12:38:47.904Z,10.27
2023-02-16T12:41:29.332Z,10.27
2023-02-16T12:44:03.890Z,10.33
2023-02-16T12:46:37.723Z,10.36
2023-02-16T12:49:15.093Z,10.43
2023-02-16T12:51:49.903Z,10.51
2023-02-16T12:54:25.283Z,10.58
2023-02-16T12:57:01.853Z,10.66
2023-02-16T12:59:40.251Z,10.69
2023-02-16T13:02:19.859Z,10.73
2023-02-16T13:04:55.789Z,10.73
2023-02-16T13:07:30.798Z,10.77
2023-02-16T13:10:05.845Z,10.85
2023-02-16T13:12:40.009Z,10.95
2023-02-16T13:15:15.675Z,11.07
2023-02-16T13:17:49.524Z,11.19
2023-02-16T13:20:20.736Z,11.29
2023-02-16T13:23:30.422Z,11.39
2023-02-16T13:26:19.015Z,11.48
2023-02-16T13:29:22.844Z,11.60
2023-02-16T13:32:09.208Z,11.68
2023-02-16T13:35:23.189Z,11.73
2023-02-16T13:38:06.630Z,11.76
2023-02-16T13:41:06.643Z,11.78
2023-02-16T13:43:37.708Z,11.77
2023-02-16T13:46:14.889Z,11.77
2023-02-16T13:48:52.933Z,11.72
2023-02-16T13:51:25.168Z,11.68
2023-02-16T13:53:57.910Z,11.60
2023-02-16T13:56:36.464Z,11.52
2023-02-16T13:59:55.915Z,11.42
2023-02-16T14:03:00.380Z,11.29
2023-02-16T14:05:41.668Z,11.20
2023-02-16T14:08:25.547Z,11.11
2023-02-16T14:11:10.969Z,11.02
2023-02-16T14:13:51.340Z,10.89
2023-02-16T14:16:34.930Z,10.81
2023-02-16T14:19:21.135Z,10.71
2023-02-16T14:21:52.073Z,10.63
2023-02-16T14:24:35.725Z,10.52
2023-02-16T14:27:06.321Z,10.47
2023-02-16T14:29:39.473Z,10.38
2023-02-16T14:32:24.384Z,10.30
2023-02-16T14:34:57.962Z,10.24
2023-02-16T14:37:37.519Z,10.16
2023-02-16T14:40:19.593Z,10.06
2023-02-16T14:42:58.231Z,9.98
2023-02-16T14:46:29.026Z,9.85
2023-02-16T14:49:48.678Z,9.71
2023-02-16T14:53:07.064Z,9.55
2023-02-16T14:56:18.393Z,9.46
2023-02-16T14:58:56.416Z,9.38
2023-02-16T15:01:26.220Z,9.34
2023-02-16T15:03:58.098Z,9.26
2023-02-16T15:06:34.549Z,9.16
2023-02-16T15:09:15.978Z,9.07
2023-02-16T15:12:08.927Z,9.00
2023-02-16T15:14:45.202Z,8.90
2023-02-16T15:17:28.073Z,8.84
2023-02-16T15:20:05.356Z,8.78
2023-02-16T15:22:33.798Z,8.73
2023-02-16T15:25:08.755Z,8.68
2023-02-16T15:27:37.234Z,8.61
2023-02-16T15:30:10.448Z,8.55
2023-02-16T15:32:39.026Z,8.50
2023-02-16T15:35:24.621Z,8.43
2023-02-16T15:38:03.146Z,8.34
2023-02-16T15:40:35.184Z,8.28
2023-02-16T15:43:20.985Z,8.21
2023-02-16T15:45:52.987Z,8.14
2023-02-16T15:48:29.321Z,8.08
2023-02-16T15:51:03.373Z,7.99
2023-02-16T15:53:38.257Z,7.94
2023-02-16T15:56:29.542Z,7.85
2023-02-16T15:59:00.915Z,7.82
2023-02-16T16:01:34.069Z,7.74
2023-02-16T16:04:06.987Z,7.69
2023-02-16T16:06:38.794Z,7.61
2023-02-16T16:09:08.637Z,7.53
2023-02-16T16:11:38.959Z,7.53
2023-02-16T16:14:08.315Z,7.45
2023-02-16T16:16:36.893Z,7.40
2023-02-16T16:19:16.828Z,7.34
2023-02-16T16:21:54.413Z,7.29
2023-02-16T16:24:35.055Z,7.26
2023-02-16T16:27:08.560Z,7.21
2023-02-16T16:29:42.051Z,7.16
2023-02-16T16:32:21.330Z,7.14
2023-02-16T16:34:50.761Z,7.08
2023-02-16T16:37:29.437Z,7.03
2023-02-16T16:40:05.711Z,6.99
2023-02-16T16:42:39.192Z,6.95
2023-02-16T16:45:35.713Z,6.89
2023-02-16T16:48:11.249Z,6.84
2023-02-16T16:50:40.688Z,6.83
2023-02-16T16:53:45.712Z,6.77
2023-02-16T16:56:15.254Z,6.74
2023-02-16T16:58:45.004Z,6.73
2023-02-16T17:01:14.474Z,6.70
2023-02-16T17:03:43.230Z,6.68
2023-02-16T17:06:11.953Z,6.67
2023-02-16T17:08:41.356Z,6.66
2023-02-16T17:11:13.646Z,6.62
2023-02-16T17:13:42.064Z,6.61
2023-02-16T17:16:18.102Z,6.57
2023-02-16T17:18:46.533Z,6.56
2023-02-16T17:21:15.703Z,6.50
2023-02-16T17:23:52.510Z,6.51
2023-02-16T17:26:22.214Z,6.48
2023-02-16T17:28:51.086Z,6.45
2023-02-16T17:31:20.923Z,6.42
2023-02-16T17:33:49.330Z,6.39
2023-02-16T17:36:18.358Z,6.32
2023-02-16T17:38:46.877Z,6.32
2023-02-16T17:41:22.795Z,6.30
2023-02-16T17:43:51.574Z,6.29
2023-02-16T17:46:24.069Z,6.29
2023-02-16T17:48:55.139Z,6.28
2023-02-16T17:51:26.170Z,6.27
2023-02-16T17:53:55.656Z,6.25
2023-02-16T17:56:25.413Z,6.25
2023-02-16T17:58:53.728Z,6.24
2023-02-16T18:01:23.969Z,6.24
2023-02-16T18:03:53.081Z,6.23
2023-02-16T18:06:28.105Z,6.21
2023-02-16T18:08:57.175Z,6.19
2023-02-16T18:11:25.538Z,6.18
2023-02-16T18:13:53.986Z,6.17
2023-02-16T18:16:28.534Z,6.14
2023-02-16T18:18:58.133Z,6.14
2023-02-16T18:21:26.449Z,6.12
2023-02-16T18:23:54.725Z,6.11
2023-02-16T18:26:23.790Z,6.07
2023-02-16T18:28:52.036Z,6.06
2023-02-16T18:31:20.624Z,6.04
2023-02-16T18:33:50.321Z,6.05
2023-02-16T18:36:18.792Z,6.04
2023-02-16T18:38:47.052Z,6.05
2023-02-16T18:41:15.471Z,6.03
2023-02-16T18:43:43.744Z,6.03
2023-02-16T18:46:12.240Z,6.02
2023-02-16T18:48:40.660Z,6.01
2023-02-16T18:51:12.312Z,6.01
2023-02-16T18:53:41.010Z,6.03
2023-02-16T18:56:12.465Z,6.02
2023-02-16T18:58:40.932Z,6.02
2023-02-16T19:01:16.159Z,5.99
2023-02-16T19:03:44.574Z,5.99
2023-02-16T19:06:14.221Z,5.98
2023-02-16T19:08:42.519Z,5.98
2023-02-16T19:11:10.826Z,5.97
2023-02-16T19:13:39.066Z,5.97
2023-02-16T19:16:08.319Z,5.96
2023-02-16T19:18:36.901Z,5.96
2023-02-16T19:21:07.876Z,5.93
2023-02-16T19:23:38.419Z,5.92
2023-02-16T19:26:08.566Z,5.89
2023-02-16T19:28:36.788Z,5.91
2023-02-16T19:31:08.126Z,5.85
2023-02-16T19:33:36.977Z,5.89
2023-02-16T19:36:08.480Z,5.88
2023-02-16T19:38:38.634Z,5.88
2023-02-16T19:41:12.064Z,5.86
2023-02-16T19:43:41.099Z,5.86
2023-02-16T19:46:10.371Z,5.87
2023-02-16T19:48:39.722Z,5.87
2023-02-16T19:51:09.777Z,5.87
2023-02-16T19:53:40.691Z,5.89
2023-02-16T19:56:11.272Z,5.88
2023-02-16T19:58:40.062Z,5.89
2023-02-16T20:01:10.255Z,5.90
2023-02-16T20:03:38.672Z,5.90
2023-02-16T20:06:15.828Z,5.89
2023-02-16T20:08:46.266Z,5.89
2023-02-16T20:11:15.597Z,5.90
2023-02-16T20:13:44.328Z,5.91
2023-02-16T20:16:15.189Z,5.91
2023-02-16T20:18:44.278Z,5.90
2023-02-16T20:21:15.036Z,5.89
2023-02-16T20:23:45.835Z,5.88
2023-02-16T20:26:17.860Z,5.87
2023-02-16T20:28:47.137Z,5.86
2023-02-16T20:31:19.253Z,5.86
2023-02-16T20:33:47.879Z,5.81
2023-02-16T20:36:17.165Z,5.79
2023-02-16T20:38:47.304Z,5.81
2023-02-16T20:41:15.930Z,5.82
2023-02-16T20:43:44.907Z,5.81
2023-02-16T20:46:14.990Z,5.79
2023-02-16T20:48:43.249Z,5.77
2023-02-16T20:51:13.933Z,5.75
2023-02-16T20:53:42.244Z,5.77
2023-02-16T20:56:15.865Z,5.77
2023-02-16T20:58:46.640Z,5.78
2023-02-16T21:01:16.719Z,5.77
2023-02-16T21:03:45.296Z,5.76
2023-02-16T21:06:13.807Z,5.76
2023-02-16T21:08:42.153Z,5.75
2023-02-16T21:11:11.912Z,5.75
2023-02-16T21:13:41.893Z,5.73
2023-02-16T21:16:10.592Z,5.74
2023-02-16T21:18:40.608Z,5.72
2023-02-16T21:21:09.968Z,5.69
2023-02-16T21:23:38.388Z,5.70
2023-02-16T21:26:07.712Z,5.67
2023-02-16T21:28:37.675Z,5.66
2023-02-16T21:31:09.825Z,5.64
2023-02-16T21:33:39.002Z,5.65
2023-02-16T21:36:11.182Z,5.64
2023-02-16T21:38:41.974Z,5.65
2023-02-16T21:41:25.530Z,5.66
2023-02-16T21:43:59.611Z,5.64
2023-02-16T21:46:29.519Z,5.63
2023-02-16T21:48:57.523Z,5.65
2023-02-16T21:51:28.849Z,5.64
2023-02-16T21:53:58.214Z,5.64
2023-02-16T21:56:33.589Z,5.63
2023-02-16T21:59:03.665Z,5.60
2023-02-16T22:01:34.623Z,5.60
2023-02-16T22:04:03.904Z,5.59
2023-02-16T22:06:36.239Z,5.58
2023-02-16T22:09:08.750Z,5.58
2023-02-16T22:11:37.336Z,5.57
2023-02-16T22:14:07.651Z,5.54
2023-02-16T22:16:38.575Z,5.53
2023-02-16T22:19:10.300Z,5.52
2023-02-16T22:21:41.413Z,5.52
2023-02-16T22:24:12.545Z,5.50
2023-02-16T22:26:41.068Z,5.52
2023-02-16T22:29:11.538Z,5.50
2023-02-16T22:31:40.565Z,5.51
2023-02-16T22:34:13.425Z,5.51
2023-02-16T22:36:41.839Z,5.49
2023-02-16T22:39:13.745Z,5.49
2023-02-16T22:41:42.011Z,5.51
2023-02-16T22:44:12.479Z,5.47
2023-02-16T22:46:40.835Z,5.49
2023-02-16T22:49:10.891Z,5.50
2023-02-16T22:51:39.723Z,5.49
2023-02-16T22:54:08.368Z,5.51
2023-02-16T22:56:36.700Z,5.51
2023-02-16T22:59:05.010Z,5.50
2023-02-16T23:01:35.082Z,5.50
2023-02-16T23:04:03.455Z,5.51
2023-02-16T23:06:34.390Z,5.52
2023-02-16T23:09:06.766Z,5.51
2023-02-16T23:11:36.241Z,5.51
2023-02-16T23:14:04.898Z,5.49
2023-02-16T23:16:34.722Z,5.52
2023-02-16T23:19:03.016Z,5.52
2023-02-16T23:21:33.866Z,5.50
2023-02-16T23:24:02.302Z,5.51
2023-02-16T23:26:32.142Z,5.51
2023-02-16T23:29:02.627Z,5.51
2023-02-16T23:31:34.887Z,5.51
2023-02-16T23:34:03.630Z,5.50
2023-02-16T23:36:32.670Z,5.48
2023-02-16T23:39:01.736Z,5.45
2023-02-16T23:41:30.571Z,5.45
2023-02-16T23:44:00.946Z,5.44
2023-02-16T23:46:29.984Z,5.43
2023-02-16T23:48:59.633Z,5.40
2023-02-16T23:51:28.418Z,5.38
2023-02-16T23:53:56.715Z,5.39
2023-02-16T23:56:27.479Z,5.39
2023-02-16T23:58:59.670Z,5.37
